createdAt,value
2023-02-11T00:13:06.025Z,3.75
2023-02-11T00:28:11.054Z,3.68
2023-02-11T00:43:16.003Z,3.75
2023-02-11T00:58:21.022Z,3.87
2023-02-11T01:13:26.046Z,4
2023-02-11T01:28:31.222Z,4
2023-02-11T01:43:36.056Z,4.06
2023-02-11T01:58:41.050Z,4.06
2023-02-11T02:13:46.053Z,4.06
2023-02-11T02:28:51.028Z,4.06
2023-02-11T02:43:56.058Z,4.12
2023-02-11T02:59:01.033Z,4.06
2023-02-11T03:14:06.082Z,4
2023-02-11T03:29:11.070Z,4
2023-02-11T03:44:16.059Z,4
2023-02-11T03:59:21.057Z,3.93
2023-02-11T04:14:26.051Z,3.81
2023-02-11T04:29:31.084Z,3.75
2023-02-11T04:44:38.095Z,3.68
2023-02-11T04:59:43.073Z,3.68
2023-02-11T05:14:46.162Z,3.62
2023-02-11T05:29:49.117Z,3.62
2023-02-11T05:44:54.101Z,3.62
2023-02-11T05:59:59.144Z,3.62
2023-02-11T06:15:04.129Z,3.68
2023-02-11T06:30:09.103Z,3.68
2023-02-11T06:45:14.141Z,3.75
2023-02-11T07:00:19.160Z,3.75
2023-02-11T07:15:24.130Z,3.81
2023-02-11T07:30:29.184Z,3.87
2023-02-11T07:45:34.132Z,3.87
2023-02-11T08:00:39.210Z,3.93
2023-02-11T08:15:44.152Z,4
2023-02-11T08:30:49.599Z,4.06
2023-02-11T08:45:54.349Z,4.18
2023-02-11T09:00:59.194Z,4.25
2023-02-11T09:16:04.167Z,4.37
2023-02-11T09:31:09.362Z,4.5
2023-02-11T09:46:14.284Z,4.62
2023-02-11T10:01:21.005Z,4.62
2023-02-11T10:16:24.242Z,4.75
2023-02-11T10:31:29.336Z,4.87
2023-02-11T10:46:34.352Z,4.93
2023-02-11T11:01:39.214Z,5
2023-02-11T11:16:44.192Z,5.06
2023-02-11T11:31:49.391Z,5.12
2023-02-11T11:46:54.253Z,5.06
2023-02-11T12:01:59.255Z,5.12
2023-02-11T12:17:04.256Z,5.18
2023-02-11T12:32:09.331Z,5.25
2023-02-11T12:47:14.241Z,5.31
2023-02-11T13:02:19.296Z,5.37
2023-02-11T13:17:24.252Z,5.37
2023-02-11T13:32:29.232Z,5.37
2023-02-11T13:47:34.472Z,5.5
2023-02-11T14:02:39.362Z,5.56
2023-02-11T14:17:44.250Z,5.43
2023-02-11T14:32:49.255Z,5.37
2023-02-11T14:47:54.287Z,5.62
2023-02-11T15:02:59.314Z,5.75
2023-02-11T15:18:04.230Z,5.75
2023-02-11T15:33:09.287Z,5.68
2023-02-11T15:48:14.264Z,5.62
2023-02-11T16:03:19.252Z,5.68
2023-02-11T16:18:28.519Z,5.5
2023-02-11T16:33:29.235Z,5.56
2023-02-11T16:48:34.252Z,5.5
2023-02-11T17:03:39.276Z,5.37
2023-02-11T17:18:44.256Z,5.5
2023-02-11T17:33:49.261Z,5.43
2023-02-11T17:48:54.282Z,5.43
2023-02-11T18:03:57.290Z,5.37
2023-02-11T18:34:07.307Z,5.37
2023-02-11T18:49:12.306Z,5.43
2023-02-11T19:04:17.338Z,5.43
2023-02-11T19:19:22.346Z,5.43
2023-02-11T19:34:27.284Z,5.43
2023-02-11T19:49:32.280Z,5.37
2023-02-11T20:04:37.314Z,5.43
2023-02-11T20:19:42.329Z,5.43
2023-02-11T20:34:47.314Z,5.37
2023-02-11T20:49:52.324Z,5.31
2023-02-11T21:04:57.303Z,5.31
2023-02-11T21:20:02.343Z,5.31
2023-02-11T21:35:07.336Z,5.37
2023-02-11T21:50:12.316Z,5.25
2023-02-11T22:05:17.338Z,5.31
2023-02-11T22:20:22.345Z,5.37
2023-02-11T22:35:27.314Z,5.31
2023-02-11T22:50:32.333Z,5.31
2023-02-11T23:05:37.330Z,5.25
2023-02-11T23:20:42.366Z,5.25
2023-02-11T23:35:45.364Z,5.25
2023-02-11T23:50:50.371Z,5.12
